North Ocean City, Maryland
Current Conditions -  °F | °C
As of 2:53 AM on Friday 19 Dec 2014 (Local Time) from KOXB Reporting Station
Overcast Overcast  
Wind Chill: 29°   Ceiling: 10000
Heat Index: 35°   Visibility: 10mi
Dew Point: 26°   Wind: 7mph
Humidity: 70%   Direction: NA
Pressure: 30.09"   Gusts: NA
Location:  38.3984°N, 75.0667°W
Report Text: KOXB 190753Z AUTO VRB06KT 10SM OVC100 02/M03 A3009 RMK AO2 SLP188 T00171033 TSNO
Loading
Personal Weather Stations






























Interactive Weather Map New forecast layout! Learn more

10-Day Weather Forecast

Advertisements
Track Severe Weather on mobile